sensor_id;sensor_type;location;lat;lon;timestamp;pressure;altitude;pressure_sealevel;temperature
50206;BMP280;36098;48.390;10.856;2023-04-25T00:01:23;95425.72;;;22.85
50206;BMP280;36098;48.390;10.856;2023-04-25T00:03:48;95424.66;;;22.86
50206;BMP280;36098;48.390;10.856;2023-04-25T00:06:14;95429.63;;;22.87
50206;BMP280;36098;48.390;10.856;2023-04-25T00:08:39;95433.13;;;22.83
50206;BMP280;36098;48.390;10.856;2023-04-25T00:11:05;95445.22;;;22.84
50206;BMP280;36098;48.390;10.856;2023-04-25T00:13:30;95445.47;;;22.82
50206;BMP280;36098;48.390;10.856;2023-04-25T00:15:55;95447.34;;;22.82
50206;BMP280;36098;48.390;10.856;2023-04-25T00:18:21;95445.22;;;22.84
50206;BMP280;36098;48.390;10.856;2023-04-25T00:20:46;95446.56;;;22.81
50206;BMP280;36098;48.390;10.856;2023-04-25T00:23:12;95442.34;;;22.80
50206;BMP280;36098;48.390;10.856;2023-04-25T00:25:42;95443.41;;;22.79
50206;BMP280;36098;48.390;10.856;2023-04-25T00:28:07;95449.47;;;22.80
50206;BMP280;36098;48.390;10.856;2023-04-25T00:30:33;95443.69;;;22.78
50206;BMP280;36098;48.390;10.856;2023-04-25T00:32:58;95441.59;;;22.80
50206;BMP280;36098;48.390;10.856;2023-04-25T00:35:23;95433.97;;;22.78
50206;BMP280;36098;48.390;10.856;2023-04-25T00:37:48;95439.50;;;22.77
50206;BMP280;36098;48.390;10.856;2023-04-25T00:40:13;95436.34;;;22.75
50206;BMP280;36098;48.390;10.856;2023-04-25T00:42:39;95434.22;;;22.77
50206;BMP280;36098;48.390;10.856;2023-04-25T00:45:05;95423.69;;;22.77
50206;BMP280;36098;48.390;10.856;2023-04-25T00:47:30;95421.59;;;22.79
50206;BMP280;36098;48.390;10.856;2023-04-25T00:49:56;95417.94;;;22.75
50206;BMP280;36098;48.390;10.856;2023-04-25T00:52:21;95410.34;;;22.73
50206;BMP280;36098;48.390;10.856;2023-04-25T00:54:46;95409.53;;;22.73
50206;BMP280;36098;48.390;10.856;2023-04-25T00:57:11;95405.56;;;22.75
50206;BMP280;36098;48.390;10.856;2023-04-25T00:59:37;95398.44;;;22.76
50206;BMP280;36098;48.390;10.856;2023-04-25T01:02:04;95404.59;;;22.71
50206;BMP280;36098;48.390;10.856;2023-04-25T01:04:29;95406.91;;;22.73
50206;BMP280;36098;48.390;10.856;2023-04-25T01:06:54;95393.25;;;22.71
50206;BMP280;36098;48.390;10.856;2023-04-25T01:09:20;95399.31;;;22.71
50206;BMP280;36098;48.390;10.856;2023-04-25T01:11:45;95396.38;;;22.73
50206;BMP280;36098;48.390;10.856;2023-04-25T01:14:11;95389.84;;;22.70
50206;BMP280;36098;48.390;10.856;2023-04-25T01:16:36;95384.59;;;22.70
50206;BMP280;36098;48.390;10.856;2023-04-25T01:19:01;95385.09;;;22.72
50206;BMP280;36098;48.390;10.856;2023-04-25T01:21:30;95381.16;;;22.70
50206;BMP280;36098;48.390;10.856;2023-04-25T01:23:55;95376.31;;;22.77
50206;BMP280;36098;48.390;10.856;2023-04-25T01:26:21;95384.28;;;22.72
50206;BMP280;36098;48.390;10.856;2023-04-25T01:28:47;95388.56;;;22.68
50206;BMP280;36098;48.390;10.856;2023-04-25T01:31:13;95391.47;;;22.66
50206;BMP280;36098;48.390;10.856;2023-04-25T01:33:39;95393.81;;;22.68
50206;BMP280;36098;48.390;10.856;2023-04-25T01:36:04;95388.78;;;22.71
50206;BMP280;36098;48.390;10.856;2023-04-25T01:38:30;95384.75;;;22.79
50206;BMP280;36098;48.390;10.856;2023-04-25T01:40:55;95382.16;;;22.74
50206;BMP280;36098;48.390;10.856;2023-04-25T01:43:20;95380.03;;;22.76
50206;BMP280;36098;48.390;10.856;2023-04-25T01:45:46;95386.94;;;22.72
50206;BMP280;36098;48.390;10.856;2023-04-25T01:48:12;95389.00;;;22.75
50206;BMP280;36098;48.390;10.856;2023-04-25T01:50:38;95386.84;;;22.77
50206;BMP280;36098;48.390;10.856;2023-04-25T01:53:04;95389.44;;;22.82
50206;BMP280;36098;48.390;10.856;2023-04-25T01:55:29;95396.53;;;22.81
50206;BMP280;36098;48.390;10.856;2023-04-25T01:57:54;95403.88;;;22.84
50206;BMP280;36098;48.390;10.856;2023-04-25T02:00:19;95395.47;;;22.82
50206;BMP280;36098;48.390;10.856;2023-04-25T02:02:45;95404.78;;;22.75
50206;BMP280;36098;48.390;10.856;2023-04-25T02:05:10;95384.03;;;22.73
50206;BMP280;36098;48.390;10.856;2023-04-25T02:07:36;95375.13;;;22.69
50206;BMP280;36098;48.390;10.856;2023-04-25T02:10:01;95387.41;;;22.74
50206;BMP280;36098;48.390;10.856;2023-04-25T02:12:27;95389.00;;;22.75
50206;BMP280;36098;48.390;10.856;2023-04-25T02:14:52;95391.13;;;22.73
50206;BMP280;36098;48.390;10.856;2023-04-25T02:17:17;95397.38;;;22.77
50206;BMP280;36098;48.390;10.856;2023-04-25T02:19:43;95394.81;;;22.72
50206;BMP280;36098;48.390;10.856;2023-04-25T02:22:08;95396.88;;;22.75
50206;BMP280;36098;48.390;10.856;2023-04-25T02:24:33;95385.09;;;22.72
50206;BMP280;36098;48.390;10.856;2023-04-25T02:26:59;95395.38;;;22.69
50206;BMP280;36098;48.390;10.856;2023-04-25T02:29:24;95383.28;;;22.68
50206;BMP280;36098;48.390;10.856;2023-04-25T02:31:50;95386.56;;;22.60
50206;BMP280;36098;48.390;10.856;2023-04-25T02:34:15;95384.38;;;22.67
50206;BMP280;36098;48.390;10.856;2023-04-25T02:36:40;95383.88;;;22.65
50206;BMP280;36098;48.390;10.856;2023-04-25T02:39:06;95386.16;;;22.71
50206;BMP280;36098;48.390;10.856;2023-04-25T02:41:31;95380.09;;;22.71
50206;BMP280;36098;48.390;10.856;2023-04-25T02:43:56;95384.94;;;22.64
50206;BMP280;36098;48.390;10.856;2023-04-25T02:46:22;95379.59;;;22.69
50206;BMP280;36098;48.390;10.856;2023-04-25T02:48:47;95375.66;;;22.66
50206;BMP280;36098;48.390;10.856;2023-04-25T02:51:12;95367.28;;;22.64
50206;BMP280;36098;48.390;10.856;2023-04-25T02:53:37;95369.66;;;22.66
50206;BMP280;36098;48.390;10.856;2023-04-25T02:56:02;95361.03;;;22.60
50206;BMP280;36098;48.390;10.856;2023-04-25T02:58:28;95359.88;;;22.66
50206;BMP280;36098;48.390;10.856;2023-04-25T03:00:53;95361.75;;;22.66
50206;BMP280;36098;48.390;10.856;2023-04-25T03:03:19;95361.09;;;22.74
50206;BMP280;36098;48.390;10.856;2023-04-25T03:05:47;95359.63;;;22.68
50206;BMP280;36098;48.390;10.856;2023-04-25T03:08:12;95364.88;;;22.68
50206;BMP280;36098;48.390;10.856;2023-04-25T03:10:38;95353.13;;;22.60
50206;BMP280;36098;48.390;10.856;2023-04-25T03:13:03;95347.59;;;22.62
50206;BMP280;36098;48.390;10.856;2023-04-25T03:15:28;95346.22;;;22.64
50206;BMP280;36098;48.390;10.856;2023-04-25T03:17:53;95349.88;;;22.68
50206;BMP280;36098;48.390;10.856;2023-04-25T03:20:18;95354.63;;;22.66
50206;BMP280;36098;48.390;10.856;2023-04-25T03:22:43;95356.00;;;22.64
50206;BMP280;36098;48.390;10.856;2023-04-25T03:25:09;95354.69;;;22.61
50206;BMP280;36098;48.390;10.856;2023-04-25T03:27:34;95350.78;;;22.59
50206;BMP280;36098;48.390;10.856;2023-04-25T03:29:59;95358.13;;;22.62
50206;BMP280;36098;48.390;10.856;2023-04-25T03:32:25;95351.00;;;22.62
50206;BMP280;36098;48.390;10.856;2023-04-25T03:34:50;95354.69;;;22.61
50206;BMP280;36098;48.390;10.856;2023-04-25T03:37:15;95359.72;;;22.58
50206;BMP280;36098;48.390;10.856;2023-04-25T03:39:40;95350.34;;;22.52
50206;BMP280;36098;48.390;10.856;2023-04-25T03:42:05;95359.69;;;22.63
50206;BMP280;36098;48.390;10.856;2023-04-25T03:44:30;95356.66;;;22.51
50206;BMP280;36098;48.390;10.856;2023-04-25T03:46:55;95349.41;;;22.43
50206;BMP280;36098;48.390;10.856;2023-04-25T03:49:21;95353.38;;;22.40
50206;BMP280;36098;48.390;10.856;2023-04-25T03:51:46;95351.75;;;22.44
50206;BMP280;36098;48.390;10.856;2023-04-25T03:54:11;95357.81;;;22.45
50206;BMP280;36098;48.390;10.856;2023-04-25T03:56:36;95358.38;;;22.37
50206;BMP280;36098;48.390;10.856;2023-04-25T03:59:01;95350.75;;;22.40
50206;BMP280;36098;48.390;10.856;2023-04-25T04:01:27;95355.75;;;22.42
50206;BMP280;36098;48.390;10.856;2023-04-25T04:03:52;95360.25;;;22.36
50206;BMP280;36098;48.390;10.856;2023-04-25T04:06:17;95346.28;;;22.41
50206;BMP280;36098;48.390;10.856;2023-04-25T04:08:42;95353.09;;;22.42
50206;BMP280;36098;48.390;10.856;2023-04-25T04:11:08;95366.84;;;22.34
50206;BMP280;36098;48.390;10.856;2023-04-25T04:13:33;95365.56;;;22.31
50206;BMP280;36098;48.390;10.856;2023-04-25T04:15:58;95359.81;;;22.29
50206;BMP280;36098;48.390;10.856;2023-04-25T04:18:23;95365.84;;;22.30
50206;BMP280;36098;48.390;10.856;2023-04-25T04:20:49;95368.72;;;22.28
50206;BMP280;36098;48.390;10.856;2023-04-25T04:23:14;95351.63;;;22.31
50206;BMP280;36098;48.390;10.856;2023-04-25T04:25:39;95348.72;;;22.32
50206;BMP280;36098;48.390;10.856;2023-04-25T04:28:05;95354.00;;;22.27
50206;BMP280;36098;48.390;10.856;2023-04-25T04:30:31;95364.03;;;22.25
50206;BMP280;36098;48.390;10.856;2023-04-25T04:32:56;95364.25;;;22.29
50206;BMP280;36098;48.390;10.856;2023-04-25T04:35:22;95358.50;;;22.27
50206;BMP280;36098;48.390;10.856;2023-04-25T04:37:47;95365.84;;;22.30
50206;BMP280;36098;48.390;10.856;2023-04-25T04:40:13;95354.75;;;22.33
50206;BMP280;36098;48.390;10.856;2023-04-25T04:42:40;95358.38;;;22.42
50206;BMP280;36098;48.390;10.856;2023-04-25T04:45:05;95367.63;;;22.34
50206;BMP280;36098;48.390;10.856;2023-04-25T04:47:31;95365.19;;;22.43
50206;BMP280;36098;48.390;10.856;2023-04-25T04:49:57;95364.91;;;22.44
50206;BMP280;36098;48.390;10.856;2023-04-25T04:52:22;95366.91;;;22.29
50206;BMP280;36098;48.390;10.856;2023-04-25T04:54:47;95373.16;;;22.33
50206;BMP280;36098;48.390;10.856;2023-04-25T04:57:15;95370.25;;;22.34
50206;BMP280;36098;48.390;10.856;2023-04-25T04:59:41;95362.00;;;22.46
50206;BMP280;36098;48.390;10.856;2023-04-25T05:02:06;95367.31;;;22.41
50206;BMP280;36098;48.390;10.856;2023-04-25T05:04:31;95376.16;;;22.50
50206;BMP280;36098;48.390;10.856;2023-04-25T05:06:57;95384.88;;;22.45
50206;BMP280;36098;48.390;10.856;2023-04-25T05:09:22;95384.09;;;22.45
50206;BMP280;36098;48.390;10.856;2023-04-25T05:11:50;95383.88;;;22.41
50206;BMP280;36098;48.390;10.856;2023-04-25T05:14:15;95373.53;;;22.50
50206;BMP280;36098;48.390;10.856;2023-04-25T05:16:42;95378.16;;;22.58
50206;BMP280;36098;48.390;10.856;2023-04-25T05:19:07;95377.66;;;22.56
50206;BMP280;36098;48.390;10.856;2023-04-25T05:21:32;95367.75;;;22.48
50206;BMP280;36098;48.390;10.856;2023-04-25T05:23:57;95367.63;;;22.58
50206;BMP280;36098;48.390;10.856;2023-04-25T05:26:22;95364.13;;;22.44
50206;BMP280;36098;48.390;10.856;2023-04-25T05:28:48;95359.97;;;22.38
50206;BMP280;36098;48.390;10.856;2023-04-25T05:31:15;95362.59;;;22.38
50206;BMP280;36098;48.390;10.856;2023-04-25T05:33:41;95372.88;;;22.34
50206;BMP280;36098;48.390;10.856;2023-04-25T05:36:06;95369.56;;;22.52
50206;BMP280;36098;48.390;10.856;2023-04-25T05:38:31;95380.16;;;22.66
50206;BMP280;36098;48.390;10.856;2023-04-25T05:40:56;95370.13;;;22.68
50206;BMP280;36098;48.390;10.856;2023-04-25T05:43:22;95375.97;;;22.65
50206;BMP280;36098;48.390;10.856;2023-04-25T05:45:47;95375.47;;;22.63
50206;BMP280;36098;48.390;10.856;2023-04-25T05:48:12;95373.34;;;22.65
50206;BMP280;36098;48.390;10.856;2023-04-25T05:50:37;95374.75;;;22.57
50206;BMP280;36098;48.390;10.856;2023-04-25T05:53:02;95375.00;;;22.56
50206;BMP280;36098;48.390;10.856;2023-04-25T05:55:28;95368.25;;;22.50
50206;BMP280;36098;48.390;10.856;2023-04-25T05:57:53;95370.41;;;22.66
50206;BMP280;36098;48.390;10.856;2023-04-25T06:00:18;95376.53;;;22.62
50206;BMP280;36098;48.390;10.856;2023-04-25T06:02:43;95368.31;;;22.68
50206;BMP280;36098;48.390;10.856;2023-04-25T06:05:09;95367.72;;;22.71
50206;BMP280;36098;48.390;10.856;2023-04-25T06:07:34;95360.69;;;22.67
50206;BMP280;36098;48.390;10.856;2023-04-25T06:09:59;95365.44;;;22.83
50206;BMP280;36098;48.390;10.856;2023-04-25T06:12:25;95367.81;;;22.85
50206;BMP280;36098;48.390;10.856;2023-04-25T06:14:51;95362.81;;;22.83
50206;BMP280;36098;48.390;10.856;2023-04-25T06:17:16;95361.75;;;22.84
50206;BMP280;36098;48.390;10.856;2023-04-25T06:19:41;95367.25;;;22.69
50206;BMP280;36098;48.390;10.856;2023-04-25T06:22:06;95370.06;;;22.54
50206;BMP280;36098;48.390;10.856;2023-04-25T06:24:32;95376.53;;;22.62
50206;BMP280;36098;48.390;10.856;2023-04-25T06:26:57;95371.31;;;22.57
50206;BMP280;36098;48.390;10.856;2023-04-25T06:29:22;95380.91;;;22.48
50206;BMP280;36098;48.390;10.856;2023-04-25T06:31:47;95369.88;;;22.46
50206;BMP280;36098;48.390;10.856;2023-04-25T06:34:13;95385.75;;;22.41
50206;BMP280;36098;48.390;10.856;2023-04-25T06:36:38;95380.47;;;22.41
50206;BMP280;36098;48.390;10.856;2023-04-25T06:39:03;95370.13;;;22.49
50206;BMP280;36098;48.390;10.856;2023-04-25T06:41:28;95368.31;;;22.45
50206;BMP280;36098;48.390;10.856;2023-04-25T06:43:53;95377.81;;;22.64
50206;BMP280;36098;48.390;10.856;2023-04-25T06:46:18;95373.44;;;22.55
50206;BMP280;36098;48.390;10.856;2023-04-25T06:48:44;95365.53;;;22.60
50206;BMP280;36098;48.390;10.856;2023-04-25T06:51:09;95360.13;;;22.46
50206;BMP280;36098;48.390;10.856;2023-04-25T06:53:35;95363.63;;;22.42
50206;BMP280;36098;48.390;10.856;2023-04-25T06:56:00;95372.03;;;22.44
50206;BMP280;36098;48.390;10.856;2023-04-25T06:58:25;95370.31;;;22.53
50206;BMP280;36098;48.390;10.856;2023-04-25T07:00:51;95363.91;;;22.40
50206;BMP280;36098;48.390;10.856;2023-04-25T07:03:16;95367.75;;;22.48
50206;BMP280;36098;48.390;10.856;2023-04-25T07:05:41;95375.00;;;22.56
50206;BMP280;36098;48.390;10.856;2023-04-25T07:08:06;95366.78;;;22.62
50206;BMP280;36098;48.390;10.856;2023-04-25T07:10:32;95365.84;;;22.53
50206;BMP280;36098;48.390;10.856;2023-04-25T07:12:57;95359.69;;;22.39
50206;BMP280;36098;48.390;10.856;2023-04-25T07:15:22;95367.34;;;22.59
50206;BMP280;36098;48.390;10.856;2023-04-25T07:17:47;95368.19;;;22.55
50206;BMP280;36098;48.390;10.856;2023-04-25T07:20:12;95367.63;;;22.58
50206;BMP280;36098;48.390;10.856;2023-04-25T07:22:38;95364.59;;;22.69
50206;BMP280;36098;48.390;10.856;2023-04-25T07:25:03;95372.63;;;22.59
50206;BMP280;36098;48.390;10.856;2023-04-25T07:27:29;95361.75;;;22.66
50206;BMP280;36098;48.390;10.856;2023-04-25T07:29:54;95366.50;;;22.64
50206;BMP280;36098;48.390;10.856;2023-04-25T07:32:19;95367.63;;;22.58
50206;BMP280;36098;48.390;10.856;2023-04-25T07:34:44;95364.38;;;22.66
50206;BMP280;36098;48.390;10.856;2023-04-25T07:37:10;95361.03;;;22.60
50206;BMP280;36098;48.390;10.856;2023-04-25T07:39:35;95360.78;;;22.57
50206;BMP280;36098;48.390;10.856;2023-04-25T07:42:01;95358.13;;;22.62
50206;BMP280;36098;48.390;10.856;2023-04-25T07:44:27;95359.19;;;22.61
50206;BMP280;36098;48.390;10.856;2023-04-25T07:46:52;95366.44;;;22.69
50206;BMP280;36098;48.390;10.856;2023-04-25T07:49:17;95362.16;;;22.73
50206;BMP280;36098;48.390;10.856;2023-04-25T07:51:43;95362.81;;;22.65
50206;BMP280;36098;48.390;10.856;2023-04-25T07:54:08;95363.88;;;22.64
50206;BMP280;36098;48.390;10.856;2023-04-25T07:56:34;95360.38;;;22.50
50206;BMP280;36098;48.390;10.856;2023-04-25T07:58:59;95368.25;;;22.50
50206;BMP280;36098;48.390;10.856;2023-04-25T08:01:25;95361.28;;;22.40
50206;BMP280;36098;48.390;10.856;2023-04-25T08:03:50;95363.41;;;22.57
50206;BMP280;36098;48.390;10.856;2023-04-25T08:06:16;95360.00;;;22.80
50206;BMP280;36098;48.390;10.856;2023-04-25T08:08:41;95363.16;;;22.77
50206;BMP280;36098;48.390;10.856;2023-04-25T08:11:06;95357.84;;;22.82
50206;BMP280;36098;48.390;10.856;2023-04-25T08:13:31;95363.63;;;22.84
50206;BMP280;36098;48.390;10.856;2023-04-25T08:15:57;95367.75;;;22.90
50206;BMP280;36098;48.390;10.856;2023-04-25T08:18:22;95358.78;;;22.72
50206;BMP280;36098;48.390;10.856;2023-04-25T08:20:47;95367.25;;;22.88
50206;BMP280;36098;48.390;10.856;2023-04-25T08:23:12;95357.72;;;22.92
50206;BMP280;36098;48.390;10.856;2023-04-25T08:25:38;95364.19;;;22.81
50206;BMP280;36098;48.390;10.856;2023-04-25T08:28:03;95358.19;;;22.75
50206;BMP280;36098;48.390;10.856;2023-04-25T08:30:28;95354.00;;;22.74
50206;BMP280;36098;48.390;10.856;2023-04-25T08:32:54;95356.13;;;22.91
50206;BMP280;36098;48.390;10.856;2023-04-25T08:35:19;95362.09;;;22.78
50206;BMP280;36098;48.390;10.856;2023-04-25T08:37:45;95350.16;;;22.85
50206;BMP280;36098;48.390;10.856;2023-04-25T08:40:11;95362.34;;;22.58
50206;BMP280;36098;48.390;10.856;2023-04-25T08:42:36;95357.00;;;22.44
50206;BMP280;36098;48.390;10.856;2023-04-25T08:45:02;95361.56;;;22.39
50206;BMP280;36098;48.390;10.856;2023-04-25T08:47:28;95365.75;;;22.35
50206;BMP280;36098;48.390;10.856;2023-04-25T08:49:54;95375.03;;;22.32
50206;BMP280;36098;48.390;10.856;2023-04-25T08:52:21;95377.91;;;22.31
50206;BMP280;36098;48.390;10.856;2023-04-25T08:54:47;95365.34;;;22.51
50206;BMP280;36098;48.390;10.856;2023-04-25T08:57:13;95361.75;;;22.84
50206;BMP280;36098;48.390;10.856;2023-04-25T08:59:40;95371.13;;;22.72
50206;BMP280;36098;48.390;10.856;2023-04-25T09:02:09;95370.06;;;22.73
50206;BMP280;36098;48.390;10.856;2023-04-25T09:04:36;95380.81;;;22.76
50206;BMP280;36098;48.390;10.856;2023-04-25T09:07:02;95373.50;;;22.73
50206;BMP280;36098;48.390;10.856;2023-04-25T09:09:27;95378.69;;;22.78
50206;BMP280;36098;48.390;10.856;2023-04-25T09:11:52;95383.59;;;22.85
50206;BMP280;36098;48.390;10.856;2023-04-25T09:14:19;95386.16;;;22.90
50206;BMP280;36098;48.390;10.856;2023-04-25T09:19:39;95390.09;;;22.92
50206;BMP280;36098;48.390;10.856;2023-04-25T09:22:05;95381.84;;;22.99
50206;BMP280;36098;48.390;10.856;2023-04-25T09:26:56;95392.50;;;22.89
50206;BMP280;36098;48.390;10.856;2023-04-25T09:29:24;95395.50;;;23.01
50206;BMP280;36098;48.390;10.856;2023-04-25T09:31:53;95402.94;;;22.94
50206;BMP280;36098;48.390;10.856;2023-04-25T09:34:24;95411.66;;;22.94
50206;BMP280;36098;48.390;10.856;2023-04-25T09:36:51;95414.13;;;22.86
50206;BMP280;36098;48.390;10.856;2023-04-25T09:39:19;95425.66;;;22.90
50206;BMP280;36098;48.390;10.856;2023-04-25T09:41:45;95433.84;;;22.88
50206;BMP280;36098;48.390;10.856;2023-04-25T09:44:12;95444.72;;;23.00
50206;BMP280;36098;48.390;10.856;2023-04-25T09:46:37;95450.31;;;22.99
50206;BMP280;36098;48.390;10.856;2023-04-25T09:49:06;95455.94;;;22.87
50206;BMP280;36098;48.390;10.856;2023-04-25T09:51:31;95449.81;;;22.73
50206;BMP280;36098;48.390;10.856;2023-04-25T09:53:56;95450.25;;;22.57
50206;BMP280;36098;48.390;10.856;2023-04-25T09:56:22;95468.28;;;22.45
50206;BMP280;36098;48.390;10.856;2023-04-25T09:58:47;95461.91;;;22.51
50206;BMP280;36098;48.390;10.856;2023-04-25T10:01:14;95474.28;;;22.50
50206;BMP280;36098;48.390;10.856;2023-04-25T10:03:40;95471.13;;;22.72
50206;BMP280;36098;48.390;10.856;2023-04-25T10:06:07;95481.97;;;22.70
50206;BMP280;36098;48.390;10.856;2023-04-25T10:08:34;95478.53;;;22.70
50206;BMP280;36098;48.390;10.856;2023-04-25T10:11:00;95471.22;;;22.67
50206;BMP280;36098;48.390;10.856;2023-04-25T10:13:25;95469.31;;;22.72
50206;BMP280;36098;48.390;10.856;2023-04-25T10:15:51;95482.16;;;22.74
50206;BMP280;36098;48.390;10.856;2023-04-25T10:18:17;95470.38;;;22.71
50206;BMP280;36098;48.390;10.856;2023-04-25T10:20:44;95473.22;;;22.75
50206;BMP280;36098;48.390;10.856;2023-04-25T10:23:11;95470.53;;;22.80
50206;BMP280;36098;48.390;10.856;2023-04-25T10:25:38;95473.72;;;22.77
50206;BMP280;36098;48.390;10.856;2023-04-25T10:28:03;95468.50;;;22.72
50206;BMP280;36098;48.390;10.856;2023-04-25T10:30:29;95465.31;;;22.75
50206;BMP280;36098;48.390;10.856;2023-04-25T10:32:54;95455.19;;;23.05
50206;BMP280;36098;48.390;10.856;2023-04-25T10:35:24;95458.63;;;23.06
50206;BMP280;36098;48.390;10.856;2023-04-25T10:40:21;95460.75;;;23.45
50206;BMP280;36098;48.390;10.856;2023-04-25T10:42:47;95455.03;;;23.57
50206;BMP280;36098;48.390;10.856;2023-04-25T10:45:12;95459.25;;;23.39
50206;BMP280;36098;48.390;10.856;2023-04-25T10:47:43;95460.25;;;23.43
50206;BMP280;36098;48.390;10.856;2023-04-25T10:50:09;95444.50;;;23.57
50206;BMP280;36098;48.390;10.856;2023-04-25T10:52:34;95455.03;;;23.57
50206;BMP280;36098;48.390;10.856;2023-04-25T10:54:59;95452.94;;;23.72
50206;BMP280;36098;48.390;10.856;2023-04-25T10:59:54;95455.63;;;23.54
50206;BMP280;36098;48.390;10.856;2023-04-25T11:02:19;95454.59;;;23.68
50206;BMP280;36098;48.390;10.856;2023-04-25T11:04:44;95464.00;;;23.56
50206;BMP280;36098;48.390;10.856;2023-04-25T11:09:54;95462.13;;;23.75
50206;BMP280;36098;48.390;10.856;2023-04-25T11:12:19;95460.28;;;23.75
50206;BMP280;36098;48.390;10.856;2023-04-25T11:14:45;95465.00;;;23.78
50206;BMP280;36098;48.390;10.856;2023-04-25T11:17:10;95475.91;;;23.53
50206;BMP280;36098;48.390;10.856;2023-04-25T11:19:36;95484.03;;;23.38
50206;BMP280;36098;48.390;10.856;2023-04-25T11:22:02;95479.47;;;23.62
50206;BMP280;36098;48.390;10.856;2023-04-25T11:24:31;95483.16;;;23.43
50206;BMP280;36098;48.390;10.856;2023-04-25T11:26:59;95480.59;;;23.56
50206;BMP280;36098;48.390;10.856;2023-04-25T11:29:27;95487.50;;;23.34
50206;BMP280;36098;48.390;10.856;2023-04-25T11:31:53;95508.09;;;23.50
50206;BMP280;36098;48.390;10.856;2023-04-25T11:34:18;95514.09;;;23.37
50206;BMP280;36098;48.390;10.856;2023-04-25T11:36:44;95526.03;;;23.48
50206;BMP280;36098;48.390;10.856;2023-04-25T11:39:09;95537.22;;;22.94
50206;BMP280;36098;48.390;10.856;2023-04-25T11:41:36;95538.09;;;23.13
50206;BMP280;36098;48.390;10.856;2023-04-25T11:44:02;95549.63;;;22.93
50206;BMP280;36098;48.390;10.856;2023-04-25T11:46:27;95547.38;;;22.82
50206;BMP280;36098;48.390;10.856;2023-04-25T11:48:52;95550.34;;;22.99
50206;BMP280;36098;48.390;10.856;2023-04-25T11:51:20;95551.72;;;23.38
50206;BMP280;36098;48.390;10.856;2023-04-25T11:53:45;95547.41;;;23.65
50206;BMP280;36098;48.390;10.856;2023-04-25T11:56:11;95553.38;;;23.52
50206;BMP280;36098;48.390;10.856;2023-04-25T11:58:58;95548.75;;;23.44
50206;BMP280;36098;48.390;10.856;2023-04-25T12:01:28;95550.84;;;23.01
50206;BMP280;36098;48.390;10.856;2023-04-25T12:03:55;95555.69;;;23.17
50206;BMP280;36098;48.390;10.856;2023-04-25T12:06:20;95563.31;;;23.19
50206;BMP280;36098;48.390;10.856;2023-04-25T12:09:02;95561.69;;;23.23
50206;BMP280;36098;48.390;10.856;2023-04-25T12:11:29;95564.66;;;23.16
50206;BMP280;36098;48.390;10.856;2023-04-25T12:13:54;95577.03;;;22.87
50206;BMP280;36098;48.390;10.856;2023-04-25T12:16:19;95575.50;;;23.10
50206;BMP280;36098;48.390;10.856;2023-04-25T12:18:45;95574.03;;;23.45
50206;BMP280;36098;48.390;10.856;2023-04-25T12:21:10;95582.72;;;23.46
50206;BMP280;36098;48.390;10.856;2023-04-25T12:23:37;95572.16;;;23.27
50206;BMP280;36098;48.390;10.856;2023-04-25T12:26:03;95572.66;;;23.29
50206;BMP280;36098;48.390;10.856;2023-04-25T12:28:28;95578.34;;;23.36
50206;BMP280;36098;48.390;10.856;2023-04-25T12:31:03;95585.72;;;23.39
50206;BMP280;36098;48.390;10.856;2023-04-25T12:33:29;95586.47;;;23.40
50206;BMP280;36098;48.390;10.856;2023-04-25T12:35:55;95590.53;;;23.32
50206;BMP280;36098;48.390;10.856;2023-04-25T12:38:27;95591.53;;;23.36
50206;BMP280;36098;48.390;10.856;2023-04-25T12:40:54;95587.47;;;23.26
50206;BMP280;36098;48.390;10.856;2023-04-25T12:43:20;95591.50;;;23.18
50206;BMP280;36098;48.390;10.856;2023-04-25T12:45:53;95578.94;;;23.05
50206;BMP280;36098;48.390;10.856;2023-04-25T12:48:18;95591.94;;;22.97
50206;BMP280;36098;48.390;10.856;2023-04-25T12:50:44;95590.94;;;22.93
50206;BMP280;36098;48.390;10.856;2023-04-25T12:53:09;95589.25;;;22.78
50206;BMP280;36098;48.390;10.856;2023-04-25T12:55:35;95582.31;;;22.87
50206;BMP280;36098;48.390;10.856;2023-04-25T12:58:00;95587.03;;;22.90
50206;BMP280;36098;48.390;10.856;2023-04-25T13:00:25;95581.22;;;22.93
50206;BMP280;36098;48.390;10.856;2023-04-25T13:02:51;95587.25;;;22.94
50206;BMP280;36098;48.390;10.856;2023-04-25T13:05:16;95589.50;;;22.82
50206;BMP280;36098;48.390;10.856;2023-04-25T13:07:42;95591.41;;;23.00
50206;BMP280;36098;48.390;10.856;2023-04-25T13:10:07;95601.44;;;22.98
50206;BMP280;36098;48.390;10.856;2023-04-25T13:12:32;95606.31;;;23.09
50206;BMP280;36098;48.390;10.856;2023-04-25T13:14:58;95587.28;;;23.40
50206;BMP280;36098;48.390;10.856;2023-04-25T13:17:23;95608.03;;;23.47
50206;BMP280;36098;48.390;10.856;2023-04-25T13:19:48;95600.16;;;23.42
50206;BMP280;36098;48.390;10.856;2023-04-25T13:22:13;95603.53;;;23.47
50206;BMP280;36098;48.390;10.856;2023-04-25T13:24:40;95600.97;;;23.42
50206;BMP280;36098;48.390;10.856;2023-04-25T13:27:05;95597.59;;;23.55
50206;BMP280;36098;48.390;10.856;2023-04-25T13:29:31;95603.25;;;23.67
50206;BMP280;36098;48.390;10.856;2023-04-25T13:31:56;95608.19;;;23.74
50206;BMP280;36098;48.390;10.856;2023-04-25T13:34:21;95613.81;;;23.67
50206;BMP280;36098;48.390;10.856;2023-04-25T13:36:46;95615.13;;;23.46
50206;BMP280;36098;48.390;10.856;2023-04-25T13:39:12;95614.97;;;23.38
50206;BMP280;36098;48.390;10.856;2023-04-25T13:41:37;95620.41;;;23.23
50206;BMP280;36098;48.390;10.856;2023-04-25T13:44:02;95622.03;;;22.91
50206;BMP280;36098;48.390;10.856;2023-04-25T13:46:27;95625.72;;;22.90
50206;BMP280;36098;48.390;10.856;2023-04-25T13:48:53;95624.78;;;22.81
50206;BMP280;36098;48.390;10.856;2023-04-25T13:51:18;95620.72;;;23.17
50206;BMP280;36098;48.390;10.856;2023-04-25T13:53:43;95632.50;;;22.96
50206;BMP280;36098;48.390;10.856;2023-04-25T13:56:08;95635.06;;;22.77
50206;BMP280;36098;48.390;10.856;2023-04-25T13:58:33;95648.16;;;22.82
50206;BMP280;36098;48.390;10.856;2023-04-25T14:00:59;95644.16;;;22.90